createdAt,value
2022-12-31T00:00:07.705Z,12.49
2022-12-31T00:05:11.250Z,12.52
2022-12-31T00:10:13.773Z,12.58
2022-12-31T00:15:16.637Z,12.55
2022-12-31T00:20:19.353Z,12.63
2022-12-31T00:25:21.879Z,12.54
2022-12-31T00:30:25.079Z,12.57
2022-12-31T00:35:31.059Z,12.62
2022-12-31T00:40:33.526Z,12.80
2022-12-31T00:45:35.998Z,12.84
2022-12-31T00:50:38.630Z,12.90
2022-12-31T00:55:41.116Z,12.95
2022-12-31T01:00:44.494Z,13.08
2022-12-31T01:05:47.101Z,13.24
2022-12-31T01:11:09.574Z,13.29
2022-12-31T01:16:13.800Z,13.31
2022-12-31T01:21:16.557Z,13.40
2022-12-31T01:26:20.089Z,13.37
2022-12-31T01:31:24.398Z,13.43
2022-12-31T01:36:32.417Z,13.34
2022-12-31T01:41:39.499Z,13.39
2022-12-31T01:46:48.408Z,13.43
2022-12-31T01:52:08.936Z,13.59
2022-12-31T01:57:12.321Z,13.52
2022-12-31T02:02:16.556Z,13.56
2022-12-31T02:07:19.205Z,13.52
2022-12-31T02:12:21.998Z,13.62
2022-12-31T02:17:39.470Z,13.61
2022-12-31T02:23:14.154Z,13.63
2022-12-31T02:28:40.840Z,13.60
2022-12-31T02:33:50.893Z,13.59
2022-12-31T02:38:55.258Z,13.67
2022-12-31T02:43:58.290Z,13.65
2022-12-31T02:49:24.197Z,13.78
2022-12-31T02:54:37.543Z,13.77
2022-12-31T03:00:02.578Z,13.87
2022-12-31T03:05:05.895Z,13.89
2022-12-31T03:10:09.347Z,13.85
2022-12-31T03:15:21.920Z,13.94
2022-12-31T03:20:50.884Z,14.00
2022-12-31T03:25:55.362Z,14.04
2022-12-31T03:31:03.050Z,14.04
2022-12-31T03:36:12.147Z,14.18
2022-12-31T03:41:14.815Z,14.28
2022-12-31T03:46:17.256Z,14.43
2022-12-31T03:51:19.722Z,14.36
2022-12-31T03:56:22.287Z,14.51
2022-12-31T04:01:25.861Z,14.50
2022-12-31T04:06:28.583Z,14.52
2022-12-31T04:11:31.036Z,14.59
2022-12-31T04:16:33.693Z,14.59
2022-12-31T04:21:36.235Z,14.73
2022-12-31T04:26:38.818Z,14.74
2022-12-31T04:31:41.429Z,14.66
2022-12-31T04:36:44.141Z,14.60
2022-12-31T04:41:46.623Z,14.59
2022-12-31T04:46:49.117Z,14.63
2022-12-31T04:51:51.589Z,14.72
2022-12-31T04:56:54.538Z,14.65
2022-12-31T05:01:57.675Z,14.72
2022-12-31T05:07:01.400Z,14.69
2022-12-31T05:12:04.322Z,14.61
2022-12-31T05:17:06.747Z,14.57
2022-12-31T05:22:27.832Z,14.52
2022-12-31T05:27:31.392Z,14.54
2022-12-31T05:32:34.985Z,14.46
2022-12-31T05:37:37.658Z,14.42
2022-12-31T05:42:40.623Z,14.46
2022-12-31T05:47:43.593Z,14.42
2022-12-31T05:52:47.802Z,14.46
2022-12-31T05:57:50.474Z,14.48
2022-12-31T06:02:53.132Z,14.36
2022-12-31T06:07:56.147Z,14.41
2022-12-31T06:12:58.900Z,14.25
2022-12-31T06:18:01.381Z,14.33
2022-12-31T06:23:04.241Z,14.34
2022-12-31T06:28:06.907Z,14.33
2022-12-31T06:33:09.491Z,14.30
2022-12-31T06:38:11.954Z,14.30
2022-12-31T06:43:14.609Z,14.34
2022-12-31T06:48:17.759Z,14.32
2022-12-31T06:53:20.273Z,14.30
2022-12-31T06:58:23.038Z,14.27
2022-12-31T07:03:36.011Z,14.21
2022-12-31T07:08:55.868Z,14.23
2022-12-31T07:14:10.794Z,14.22
2022-12-31T07:19:28.451Z,14.26
2022-12-31T07:24:31.205Z,14.28
2022-12-31T07:30:09.695Z,14.41
2022-12-31T07:35:20.946Z,14.39
2022-12-31T07:40:48.485Z,14.58
2022-12-31T07:46:05.626Z,14.60
2022-12-31T07:51:11.824Z,14.60
2022-12-31T07:56:15.362Z,14.77
2022-12-31T08:01:44.122Z,14.86
2022-12-31T08:06:51.585Z,14.94
2022-12-31T08:11:58.934Z,14.97
2022-12-31T08:17:01.659Z,15.01
2022-12-31T08:22:28.587Z,15.09
2022-12-31T08:27:47.715Z,15.12
2022-12-31T08:33:04.327Z,15.18
2022-12-31T08:38:44.742Z,15.19
2022-12-31T08:44:05.057Z,15.28
2022-12-31T08:49:10.170Z,15.32
2022-12-31T08:54:13.350Z,15.32
2022-12-31T08:59:29.037Z,15.41
2022-12-31T09:05:09.043Z,15.54
2022-12-31T09:10:36.032Z,15.54
2022-12-31T09:15:48.471Z,15.60
2022-12-31T09:20:51.299Z,15.82
2022-12-31T09:26:19.542Z,16.01
2022-12-31T09:31:47.111Z,16.17
2022-12-31T09:36:52.873Z,16.33
2022-12-31T09:42:25.663Z,16.45
2022-12-31T09:47:37.159Z,16.61
2022-12-31T09:53:00.650Z,16.69
2022-12-31T09:58:25.156Z,16.79
2022-12-31T10:03:55.410Z,16.85
2022-12-31T10:09:28.702Z,17.07
2022-12-31T10:15:07.103Z,17.19
2022-12-31T10:20:47.031Z,17.37
2022-12-31T10:26:17.571Z,17.48
2022-12-31T10:31:37.540Z,17.25
2022-12-31T10:37:03.985Z,17.24
2022-12-31T10:42:25.800Z,17.31
2022-12-31T10:48:16.243Z,17.39
2022-12-31T10:53:54.446Z,17.51
2022-12-31T10:59:14.995Z,17.59
2022-12-31T11:04:44.940Z,17.72
2022-12-31T11:10:21.347Z,17.93
2022-12-31T11:15:48.291Z,18.25
2022-12-31T11:21:22.810Z,19.26
2022-12-31T11:26:40.477Z,20.80
2022-12-31T11:32:02.610Z,20.47
2022-12-31T11:37:25.319Z,19.85
2022-12-31T11:42:50.789Z,21.37
2022-12-31T11:48:30.616Z,23.01
2022-12-31T11:53:53.803Z,23.55
2022-12-31T11:58:57.412Z,24.72
2022-12-31T12:04:01.069Z,24.70
2022-12-31T12:09:11.983Z,23.39
2022-12-31T12:14:39.613Z,24.05
2022-12-31T12:19:45.549Z,24.22
2022-12-31T12:25:03.724Z,22.82
2022-12-31T12:30:27.392Z,21.78
2022-12-31T12:35:33.725Z,20.89
2022-12-31T12:40:37.503Z,21.27
2022-12-31T12:45:51.453Z,20.82
2022-12-31T12:50:55.114Z,20.27
2022-12-31T12:56:19.682Z,19.85
2022-12-31T13:01:42.991Z,19.66
2022-12-31T13:06:58.877Z,19.46
2022-12-31T13:13:13.653Z,19.38
2022-12-31T13:18:17.031Z,19.32
2022-12-31T13:23:58.875Z,19.18
2022-12-31T13:29:04.241Z,19.19
2022-12-31T13:34:31.843Z,19.16
2022-12-31T13:39:41.992Z,19.16
2022-12-31T13:45:09.244Z,19.09
2022-12-31T13:50:36.529Z,19.01
2022-12-31T13:56:16.905Z,18.94
2022-12-31T14:01:33.648Z,18.88
2022-12-31T14:07:02.823Z,18.82
2022-12-31T14:12:32.665Z,18.73
2022-12-31T14:17:53.870Z,18.72
2022-12-31T14:23:09.759Z,18.49
2022-12-31T14:28:27.306Z,18.59
2022-12-31T14:34:00.271Z,18.52
2022-12-31T14:39:38.990Z,18.41
2022-12-31T14:45:06.780Z,18.20
2022-12-31T14:50:14.213Z,18.32
2022-12-31T14:55:35.479Z,18.30
2022-12-31T15:00:40.317Z,18.16
2022-12-31T15:06:17.751Z,18.04
2022-12-31T15:11:43.008Z,17.92
2022-12-31T15:17:06.668Z,17.72
2022-12-31T15:22:33.214Z,17.61
2022-12-31T15:27:38.535Z,17.48
2022-12-31T15:32:46.188Z,17.42
2022-12-31T15:38:11.558Z,17.33
2022-12-31T15:43:28.234Z,17.28
2022-12-31T15:48:52.117Z,17.22
2022-12-31T15:53:57.590Z,17.18
2022-12-31T15:59:03.954Z,17.02
2022-12-31T16:04:20.025Z,17.02
2022-12-31T16:09:26.665Z,16.96
2022-12-31T16:14:40.826Z,16.99
2022-12-31T16:19:46.366Z,16.86
2022-12-31T16:30:27.660Z,16.65
2022-12-31T16:35:36.406Z,16.49
2022-12-31T16:40:40.590Z,16.31
2022-12-31T16:45:43.992Z,16.16
2022-12-31T16:50:51.699Z,15.95
2022-12-31T16:55:57.302Z,15.82
2022-12-31T17:01:12.248Z,15.69
2022-12-31T17:06:20.099Z,15.55
2022-12-31T17:11:33.163Z,15.58
2022-12-31T17:16:39.335Z,15.79
2022-12-31T17:21:48.635Z,15.73
2022-12-31T17:26:52.472Z,15.54
2022-12-31T17:32:08.018Z,15.36
2022-12-31T17:37:18.191Z,15.25
2022-12-31T17:42:37.547Z,15.16
2022-12-31T17:47:45.632Z,15.22
2022-12-31T17:52:48.728Z,15.42
2022-12-31T17:57:57.666Z,15.14
2022-12-31T18:03:00.832Z,15.09
2022-12-31T18:08:03.531Z,15.11
2022-12-31T18:13:12.623Z,15.82
2022-12-31T18:18:29.751Z,15.78
2022-12-31T18:29:02.479Z,15.88
2022-12-31T18:34:05.077Z,15.73
2022-12-31T18:39:08.545Z,15.68
2022-12-31T18:44:14.357Z,15.78
2022-12-31T18:49:17.627Z,15.64
2022-12-31T18:54:21.143Z,15.62
2022-12-31T18:59:28.351Z,15.63
2022-12-31T19:04:35.024Z,15.62
2022-12-31T19:09:49.098Z,15.57
2022-12-31T19:14:56.015Z,15.58
2022-12-31T19:20:04.960Z,15.54
2022-12-31T19:25:38.265Z,15.57
2022-12-31T19:30:42.467Z,15.57
2022-12-31T19:35:47.148Z,15.52
2022-12-31T19:40:52.630Z,15.48
2022-12-31T19:45:58.762Z,15.51
2022-12-31T19:51:02.253Z,15.58
2022-12-31T19:56:06.406Z,15.54
2022-12-31T20:01:20.545Z,15.44
2022-12-31T20:06:25.004Z,15.39
2022-12-31T20:11:32.117Z,15.30
2022-12-31T20:16:36.685Z,15.27
2022-12-31T20:21:42.336Z,15.34
2022-12-31T20:26:46.691Z,15.23
2022-12-31T20:31:51.312Z,15.11
2022-12-31T20:36:56.171Z,15.06
2022-12-31T20:42:05.878Z,14.98
2022-12-31T20:47:10.121Z,14.91
2022-12-31T20:52:15.274Z,14.86
2022-12-31T20:57:28.848Z,14.82
2022-12-31T21:02:42.563Z,14.74
2022-12-31T21:07:47.133Z,14.61
2022-12-31T21:12:53.979Z,14.58
2022-12-31T21:18:01.628Z,14.50
2022-12-31T21:23:06.800Z,14.38
2022-12-31T21:28:10.984Z,14.35
2022-12-31T21:33:15.253Z,14.26
2022-12-31T21:38:19.353Z,14.33
2022-12-31T21:43:24.593Z,14.36
2022-12-31T21:48:29.788Z,14.41
2022-12-31T21:53:37.150Z,14.44
2022-12-31T21:58:44.456Z,14.54
2022-12-31T22:03:48.500Z,14.49
2022-12-31T22:08:57.226Z,14.47
2022-12-31T22:14:01.538Z,14.34
2022-12-31T22:19:05.533Z,14.33
2022-12-31T22:24:12.210Z,14.26
2022-12-31T22:29:16.659Z,14.18
2022-12-31T22:34:20.723Z,14.14
2022-12-31T22:39:44.472Z,14.03
2022-12-31T22:44:49.384Z,14.01
2022-12-31T22:49:53.763Z,14.11
2022-12-31T22:55:00.779Z,14.22
2022-12-31T23:00:12.281Z,14.14
2022-12-31T23:05:21.168Z,14.16
2022-12-31T23:10:43.814Z,14.18
2022-12-31T23:16:06.382Z,14.16
2022-12-31T23:21:31.364Z,14.19
2022-12-31T23:31:55.436Z,14.23
2022-12-31T23:36:57.896Z,14.23
2022-12-31T23:42:01.213Z,14.19
2022-12-31T23:47:03.847Z,14.15
2022-12-31T23:52:06.283Z,14.12
2022-12-31T23:57:08.895Z,14.12
